Time;durP1;ratioP1;P1;durP2;ratioP2;P2;SDS_P1;SDS_P2;PMS_P1;PMS_P2;Temp;Humidity;BMP_temperature;BMP_pressure;BME280_temperature;BME280_humidity;BME280_pressure;Samples;Min_cycle;Max_cycle;Signal;HPM_P1;HPM_P2
2023/04/03 00:00:43;;;;;;;;;;;;;;;;;;5027705;28;19929;-62
2023/04/03 00:03:09;;;;;;;;;;;;;;;;;;5031572;28;19925;-62
2023/04/03 00:05:35;;;;;;;;;;;;;;;;;;5033707;28;19929;-62
2023/04/03 00:08:01;;;;;;;;;;;;;;;;;;5033884;28;19982;-62
2023/04/03 00:10:27;;;;;;;;;;;;;;;;;;5032422;28;19925;-62
2023/04/03 00:12:53;;;;;;;;;;;;;;;;;;5032863;28;19932;-63
2023/04/03 00:15:19;;;;;;;;;;;;;;;;;;5031727;28;20278;-62
2023/04/03 00:17:45;;;;;;;;;;;;;;;;;;5032987;28;19921;-62
2023/04/03 00:20:11;;;;;;;;;;;;;;;;;;5025070;28;19925;-62
2023/04/03 00:22:37;;;;;;;;;;;;;;;;;;5031118;28;19925;-62
2023/04/03 00:25:03;;;;;;;;;;;;;;;;;;5033758;28;19921;-62
2023/04/03 00:27:29;;;;;;;;;;;;;;;;;;5032062;28;19932;-62
2023/04/03 00:29:55;;;;;;;;;;;;;;;;;;5030241;28;19936;-62
2023/04/03 00:32:20;;;;;;;;;;;;;;;;;;5022042;28;20264;-62
2023/04/03 00:34:46;;;;;;;;;;;;;;;;;;5034424;28;19968;-62
2023/04/03 00:37:12;;;;;;;;;;;;;;;;;;5032646;28;19964;-62
2023/04/03 00:39:39;;;;;;;;;;;;;;;;;;5031064;28;19932;-62
2023/04/03 00:42:05;;;;;;;;;;;;;;;;;;5031388;28;19925;-62
2023/04/03 00:44:34;;;;;;;;;;;;;;;;;;5032226;28;19925;-62
2023/04/03 00:47:00;;;;;;;;;;;;;;;;;;5031178;28;20007;-62
2023/04/03 00:49:25;;;;;;;;;;;;;;;;;;5031361;28;19928;-62
2023/04/03 00:51:51;;;;;;;;;;;;;;;;;;5033714;28;19921;-62
2023/04/03 00:54:17;;;;;;;;;;;;;;;;;;5033333;28;20297;-62
2023/04/03 00:56:43;;;;;;;;;;;;;;;;;;5015378;28;19933;-62
2023/04/03 00:59:09;;;;;;;;;;;;;;;;;;5032112;28;20432;-63
2023/04/03 01:01:35;;;;;;;;;;;;;;;;;;5022709;28;19921;-62
2023/04/03 01:04:02;;;;;;;;;;;;;;;;;;5027754;28;19932;-62
2023/04/03 01:06:30;;;;;;;;;;;;;;;;;;5026549;28;19929;-62
2023/04/03 01:08:56;;;;;;;;;;;;;;;;;;5032189;28;19944;-62
2023/04/03 01:11:22;;;;;;;;;;;;;;;;;;5031902;28;19921;-62
2023/04/03 01:13:48;;;;;;;;;;;;;;;;;;5031142;28;19932;-62
2023/04/03 01:16:14;;;;;;;;;;;;;;;;;;5028835;28;20333;-62
2023/04/03 01:18:40;;;;;;;;;;;;;;;;;;5032660;28;19974;-62
2023/04/03 01:21:06;;;;;;;;;;;;;;;;;;5032292;28;19925;-62
2023/04/03 01:23:32;;;;;;;;;;;;;;;;;;5031924;28;20338;-62
2023/04/03 01:25:58;;;;;;;;;;;;;;;;;;5029718;28;20531;-62
2023/04/03 01:28:24;;;;;;;;;;;;;;;;;;5032293;28;19932;-62
2023/04/03 01:30:50;;;;;;;;;;;;;;;;;;5029783;28;19921;-62
2023/04/03 01:33:16;;;;;;;;;;;;;;;;;;5030472;28;19925;-62
2023/04/03 01:35:42;;;;;;;;;;;;;;;;;;5028745;28;19932;-62
2023/04/03 01:38:08;;;;;;;;;;;;;;;;;;5030733;28;19925;-62
2023/04/03 01:40:33;;;;;;;;;;;;;;;;;;5013833;28;19925;-62
2023/04/03 01:42:59;;;;;;;;;;;;;;;;;;5031270;28;20025;-62
2023/04/03 01:45:25;;;;;;;;;;;;;;;;;;5028455;28;20457;-62
2023/04/03 01:47:51;;;;;;;;;;;;;;;;;;5030040;28;19967;-62
2023/04/03 01:50:17;;;;;;;;;;;;;;;;;;5028763;28;20635;-64
2023/04/03 01:52:43;;;;;;;;;;;;;;;;;;5030993;28;20184;-62
2023/04/03 01:55:09;;;;;;;;;;;;;;;;;;5032419;28;19972;-62
2023/04/03 01:57:35;;;;;;;;;;;;;;;;;;5031457;28;19920;-63
2023/04/03 02:00:01;;;;;;;;;;;;;;;;;;5028335;28;19925;-62
2023/04/03 02:02:27;;;;;;;;;;;;;;;;;;5028200;28;19925;-63
2023/04/03 02:04:53;;;;;;;;;;;;;;;;;;5028129;28;19941;-62
2023/04/03 02:07:19;;;;;;;;;;;;;;;;;;5030294;28;19921;-62
2023/04/03 02:09:44;;;;;;;;;;;;;;;;;;5029141;28;19963;-62
2023/04/03 02:12:10;;;;;;;;;;;;;;;;;;5030318;28;20341;-62
2023/04/03 02:14:36;;;;;;;;;;;;;;;;;;5029017;28;20302;-62
2023/04/03 02:17:08;;;;;;;;;;;;;;;;;;5028463;28;19960;-62
2023/04/03 02:19:34;;;;;;;;;;;;;;;;;;5030242;28;19932;-62
2023/04/03 02:22:00;;;;;;;;;;;;;;;;;;5030278;28;19925;-62
2023/04/03 02:24:26;;;;;;;;;;;;;;;;;;5024383;28;19929;-62
2023/04/03 02:26:52;;;;;;;;;;;;;;;;;;5028284;28;19929;-62
2023/04/03 02:29:17;;;;;;;;;;;;;;;;;;5030546;28;20379;-62
2023/04/03 02:31:43;;;;;;;;;;;;;;;;;;5026866;28;19929;-63
2023/04/03 02:34:10;;;;;;;;;;;;;;;;;;5030234;28;19961;-62
2023/04/03 02:36:36;;;;;;;;;;;;;;;;;;5028271;28;19925;-62
2023/04/03 02:39:02;;;;;;;;;;;;;;;;;;5014199;28;19932;-62
2023/04/03 02:41:34;;;;;;;;;;;;;;;;;;5010122;28;19922;-62
2023/04/03 02:44:00;;;;;;;;;;;;;;;;;;5030129;28;19996;-62
2023/04/03 02:46:26;;;;;;;;;;;;;;;;;;5027803;28;20008;-62
2023/04/03 02:48:52;;;;;;;;;;;;;;;;;;5030614;28;19975;-62
2023/04/03 02:51:18;;;;;;;;;;;;;;;;;;5030241;28;19921;-62
2023/04/03 02:53:43;;;;;;;;;;;;;;;;;;5031253;28;19994;-62
2023/04/03 02:56:09;;;;;;;;;;;;;;;;;;5019196;28;19976;-62
2023/04/03 02:58:35;;;;;;;;;;;;;;;;;;5025160;28;19921;-62
2023/04/03 03:01:01;;;;;;;;;;;;;;;;;;5028457;28;19921;-62
2023/04/03 03:03:27;;;;;;;;;;;;;;;;;;5029714;28;19944;-62
2023/04/03 03:05:53;;;;;;;;;;;;;;;;;;5029279;28;19972;-62
2023/04/03 03:08:20;;;;;;;;;;;;;;;;;;5031420;28;19932;-62
2023/04/03 03:10:45;;;;;;;;;;;;;;;;;;5028867;28;20391;-62
2023/04/03 03:13:11;;;;;;;;;;;;;;;;;;5031781;28;19975;-62
2023/04/03 03:15:37;;;;;;;;;;;;;;;;;;5030656;28;20024;-62
2023/04/03 03:18:03;;;;;;;;;;;;;;;;;;5028977;28;20414;-62
2023/04/03 03:20:29;;;;;;;;;;;;;;;;;;5031849;28;19932;-62
2023/04/03 03:22:55;;;;;;;;;;;;;;;;;;5031598;28;19921;-62
2023/04/03 03:25:21;;;;;;;;;;;;;;;;;;5030296;28;19932;-62
2023/04/03 03:27:47;;;;;;;;;;;;;;;;;;5031833;28;19932;-62
2023/04/03 03:30:13;;;;;;;;;;;;;;;;;;5013355;28;19922;-62
2023/04/03 03:32:39;;;;;;;;;;;;;;;;;;5014854;28;19975;-62
2023/04/03 03:35:05;;;;;;;;;;;;;;;;;;5031846;28;19925;-62
2023/04/03 03:37:30;;;;;;;;;;;;;;;;;;5032395;28;19921;-62
2023/04/03 03:39:56;;;;;;;;;;;;;;;;;;5035459;28;19927;-62
2023/04/03 03:42:22;;;;;;;;;;;;;;;;;;5033749;28;20314;-62
2023/04/03 03:44:48;;;;;;;;;;;;;;;;;;5035243;28;20502;-62
2023/04/03 03:47:14;;;;;;;;;;;;;;;;;;5035247;28;19921;-62
2023/04/03 03:49:40;;;;;;;;;;;;;;;;;;5017032;28;20617;-62
2023/04/03 03:52:06;;;;;;;;;;;;;;;;;;5015531;28;19929;-62
2023/04/03 03:54:32;;;;;;;;;;;;;;;;;;5015312;28;19933;-63
2023/04/03 03:56:58;;;;;;;;;;;;;;;;;;5013552;28;19925;-61
2023/04/03 03:59:24;;;;;;;;;;;;;;;;;;5018279;28;19964;-61
2023/04/03 04:01:50;;;;;;;;;;;;;;;;;;5034561;28;20386;-63
2023/04/03 04:04:16;;;;;;;;;;;;;;;;;;5023110;28;19925;-62
2023/04/03 04:06:42;;;;;;;;;;;;;;;;;;5032806;28;19921;-62
2023/04/03 04:09:08;;;;;;;;;;;;;;;;;;5033047;28;19928;-62
2023/04/03 04:11:34;;;;;;;;;;;;;;;;;;5014478;28;19929;-62
2023/04/03 04:14:00;;;;;;;;;;;;;;;;;;5031056;28;19949;-62
2023/04/03 04:16:26;;;;;;;;;;;;;;;;;;5031618;28;19936;-62
2023/04/03 04:18:52;;;;;;;;;;;;;;;;;;5033872;28;20410;-62
2023/04/03 04:21:18;;;;;;;;;;;;;;;;;;5031214;28;19925;-61
2023/04/03 04:23:44;;;;;;;;;;;;;;;;;;5030251;28;20310;-62
2023/04/03 04:26:10;;;;;;;;;;;;;;;;;;5032289;28;19922;-62
2023/04/03 04:28:36;;;;;;;;;;;;;;;;;;5031683;28;19994;-62
2023/04/03 04:31:02;;;;;;;;;;;;;;;;;;5030101;28;20314;-62
2023/04/03 04:33:27;;;;;;;;;;;;;;;;;;5018528;28;19929;-63
2023/04/03 04:35:53;;;;;;;;;;;;;;;;;;5031543;28;19971;-62
2023/04/03 04:38:19;;;;;;;;;;;;;;;;;;5023576;28;19999;-62
2023/04/03 04:40:45;;;;;;;;;;;;;;;;;;5029682;28;20259;-62
2023/04/03 04:43:14;;;;;;;;;;;;;;;;;;5030355;28;19928;-62
2023/04/03 04:45:40;;;;;;;;;;;;;;;;;;5030705;28;19928;-62
2023/04/03 04:48:05;;;;;;;;;;;;;;;;;;5031087;28;19921;-62
2023/04/03 04:50:31;;;;;;;;;;;;;;;;;;5031422;28;19925;-62
2023/04/03 04:52:57;;;;;;;;;;;;;;;;;;5031000;28;19925;-62
2023/04/03 04:55:23;;;;;;;;;;;;;;;;;;5022579;28;20294;-62
2023/04/03 04:57:49;;;;;;;;;;;;;;;;;;5032148;28;19921;-62
2023/04/03 05:00:15;;;;;;;;;;;;;;;;;;5030259;28;19925;-63
2023/04/03 05:02:41;;;;;;;;;;;;;;;;;;5032099;28;20385;-62
2023/04/03 05:05:07;;;;;;;;;;;;;;;;;;5030813;28;20079;-62
2023/04/03 05:07:33;;;;;;;;;;;;;;;;;;5030926;28;20551;-62
2023/04/03 05:09:59;;;;;;;;;;;;;;;;;;5026643;28;20411;-62
2023/04/03 05:12:25;;;;;;;;;;;;;;;;;;5025987;28;20298;-62
2023/04/03 05:14:51;;;;;;;;;;;;;;;;;;5030399;28;20272;-62
2023/04/03 05:17:16;;;;;;;;;;;;;;;;;;5028122;28;19971;-62
2023/04/03 05:19:42;;;;;;;;;;;;;;;;;;5032527;28;19925;-62
2023/04/03 05:22:08;;;;;;;;;;;;;;;;;;5030239;28;20283;-63
2023/04/03 05:24:34;;;;;;;;;;;;;;;;;;5030159;28;19925;-63
2023/04/03 05:27:00;;;;;;;;;;;;;;;;;;5028215;28;20031;-63
2023/04/03 05:29:26;;;;;;;;;;;;;;;;;;5029791;28;20007;-63
2023/04/03 05:31:52;;;;;;;;;;;;;;;;;;5032140;28;20608;-63
2023/04/03 05:34:18;;;;;;;;;;;;;;;;;;5031196;28;19960;-63
2023/04/03 05:36:44;;;;;;;;;;;;;;;;;;5030530;28;19983;-62
2023/04/03 05:39:10;;;;;;;;;;;;;;;;;;5031428;28;19926;-63
2023/04/03 05:41:36;;;;;;;;;;;;;;;;;;5027411;28;19943;-63
2023/04/03 05:44:02;;;;;;;;;;;;;;;;;;5027709;28;19921;-63
2023/04/03 05:46:28;;;;;;;;;;;;;;;;;;5032693;28;19929;-63
2023/04/03 05:48:54;;;;;;;;;;;;;;;;;;5022519;28;19972;-63
2023/04/03 05:51:20;;;;;;;;;;;;;;;;;;5012869;28;19922;-63
2023/04/03 05:53:46;;;;;;;;;;;;;;;;;;5012842;28;19921;-62
2023/04/03 05:56:11;;;;;;;;;;;;;;;;;;5011336;28;19929;-62
2023/04/03 05:58:37;;;;;;;;;;;;;;;;;;5020373;28;19932;-62
2023/04/03 06:01:03;;;;;;;;;;;;;;;;;;5029110;28;20023;-63
2023/04/03 06:03:30;;;;;;;;;;;;;;;;;;5030862;28;19928;-63
2023/04/03 06:05:56;;;;;;;;;;;;;;;;;;5030776;28;19936;-63
2023/04/03 06:08:23;;;;;;;;;;;;;;;;;;5032211;28;19921;-63
2023/04/03 06:10:50;;;;;;;;;;;;;;;;;;5028266;28;19921;-63
2023/04/03 06:13:16;;;;;;;;;;;;;;;;;;5012662;28;19997;-63
2023/04/03 06:15:42;;;;;;;;;;;;;;;;;;5016459;28;19983;-63
2023/04/03 06:18:08;;;;;;;;;;;;;;;;;;5030848;28;20340;-63
2023/04/03 06:20:34;;;;;;;;;;;;;;;;;;5031193;28;19925;-63
2023/04/03 06:23:00;;;;;;;;;;;;;;;;;;5015998;28;19921;-63
2023/04/03 06:25:26;;;;;;;;;;;;;;;;;;5012848;28;19921;-63
2023/04/03 06:27:52;;;;;;;;;;;;;;;;;;5025842;28;20043;-61
2023/04/03 06:30:18;;;;;;;;;;;;;;;;;;5016563;28;20012;-61
2023/04/03 06:32:44;;;;;;;;;;;;;;;;;;5018729;28;20060;-61
2023/04/03 06:35:10;;;;;;;;;;;;;;;;;;5023783;28;19987;-62
2023/04/03 06:37:36;;;;;;;;;;;;;;;;;;5011144;28;19922;-63
2023/04/03 06:40:02;;;;;;;;;;;;;;;;;;5012715;28;19921;-63
2023/04/03 06:42:28;;;;;;;;;;;;;;;;;;5013796;28;19929;-63
2023/04/03 06:44:55;;;;;;;;;;;;;;;;;;5026875;28;19928;-63
2023/04/03 06:47:20;;;;;;;;;;;;;;;;;;5030494;28;20008;-63
2023/04/03 06:49:46;;;;;;;;;;;;;;;;;;5030364;28;20011;-63
2023/04/03 06:52:12;;;;;;;;;;;;;;;;;;5029268;28;19921;-63
2023/04/03 06:54:38;;;;;;;;;;;;;;;;;;5030647;28;20252;-63
2023/04/03 06:57:04;;;;;;;;;;;;;;;;;;5027282;28;19929;-63
2023/04/03 06:59:30;;;;;;;;;;;;;;;;;;5044455;28;19947;-63
2023/04/03 07:01:58;;;;;;;;;;;;;;;;;;5026118;28;19925;-63
2023/04/03 07:04:24;;;;;;;;;;;;;;;;;;5030242;28;19933;-63
2023/04/03 07:06:50;;;;;;;;;;;;;;;;;;5029258;28;19921;-63
2023/04/03 07:09:16;;;;;;;;;;;;;;;;;;5030655;28;19945;-63
2023/04/03 07:11:42;;;;;;;;;;;;;;;;;;5031273;28;20236;-63
2023/04/03 07:14:08;;;;;;;;;;;;;;;;;;5033817;28;19921;-63
2023/04/03 07:16:34;;;;;;;;;;;;;;;;;;5032712;28;19960;-63
2023/04/03 07:19:01;;;;;;;;;;;;;;;;;;5032680;23;19933;-63
2023/04/03 07:21:27;;;;;;;;;;;;;;;;;;4998311;28;19926;-63
2023/04/03 07:23:53;;;;;;;;;;;;;;;;;;4990634;28;19922;-63
2023/04/03 07:26:20;;;;;;;;;;;;;;;;;;4995662;28;19975;-63
2023/04/03 07:28:48;;;;;;;;;;;;;;;;;;4992186;28;19922;-63
2023/04/03 07:31:14;;;;;;;;;;;;;;;;;;4990531;28;20005;-63
2023/04/03 07:33:40;;;;;;;;;;;;;;;;;;4996513;28;19925;-63
2023/04/03 07:36:07;;;;;;;;;;;;;;;;;;4995156;28;19929;-63
2023/04/03 07:38:32;;;;;;;;;;;;;;;;;;4991613;28;19948;-63
2023/04/03 07:40:58;;;;;;;;;;;;;;;;;;4994897;28;19922;-63
2023/04/03 07:43:24;;;;;;;;;;;;;;;;;;4994999;28;20186;-63
2023/04/03 07:45:50;;;;;;;;;;;;;;;;;;4990149;28;20273;-63
2023/04/03 07:48:17;;;;;;;;;;;;;;;;;;4995200;28;19929;-63
2023/04/03 07:50:43;;;;;;;;;;;;;;;;;;4993659;28;20009;-63
2023/04/03 07:53:08;;;;;;;;;;;;;;;;;;4995204;28;20004;-63
2023/04/03 07:55:37;;;;;;;;;;;;;;;;;;4993545;28;20283;-63
2023/04/03 07:58:03;;;;;;;;;;;;;;;;;;4995078;28;20356;-63
2023/04/03 08:00:29;;;;;;;;;;;;;;;;;;4992429;28;19930;-62
2023/04/03 08:02:55;;;;;;;;;;;;;;;;;;5025780;28;19926;-62
2023/04/03 08:05:21;;;;;;;;;;;;;;;;;;5046248;28;19921;-62
2023/04/03 08:07:47;;;;;;;;;;;;;;;;;;5011678;28;19929;-62
2023/04/03 08:10:13;;;;;;;;;;;;;;;;;;4991089;28;19925;-62
2023/04/03 08:12:39;;;;;;;;;;;;;;;;;;4993468;28;20359;-62
2023/04/03 08:15:06;;;;;;;;;;;;;;;;;;4993586;28;19976;-62
2023/04/03 08:17:32;;;;;;;;;;;;;;;;;;4992188;28;20368;-63
2023/04/03 08:19:58;;;;;;;;;;;;;;;;;;4999117;28;19953;-62
2023/04/03 08:22:24;;;;;;;;;;;;;;;;;;4993130;28;19926;-63
2023/04/03 08:24:50;;;;;;;;;;;;;;;;;;4994008;28;19926;-63
2023/04/03 08:27:16;;;;;;;;;;;;;;;;;;4995714;28;19944;-62
2023/04/03 08:29:42;;;;;;;;;;;;;;;;;;4994597;28;19929;-63
2023/04/03 08:32:08;;;;;;;;;;;;;;;;;;4991159;28;20414;-63
2023/04/03 08:34:34;;;;;;;;;;;;;;;;;;4993160;28;19933;-63
2023/04/03 08:37:00;;;;;;;;;;;;;;;;;;4993264;28;19922;-62
2023/04/03 08:39:26;;;;;;;;;;;;;;;;;;4992235;28;19975;-63
2023/04/03 08:41:52;;;;;;;;;;;;;;;;;;4981169;28;19932;-63
2023/04/03 08:44:18;;;;;;;;;;;;;;;;;;4991491;28;19922;-62
2023/04/03 08:46:44;;;;;;;;;;;;;;;;;;4990666;28;20454;-62
2023/04/03 08:49:10;;;;;;;;;;;;;;;;;;4994751;28;19921;-62
2023/04/03 08:51:36;;;;;;;;;;;;;;;;;;4994506;28;19925;-62
2023/04/03 08:54:03;;;;;;;;;;;;;;;;;;4992239;28;19930;-62
2023/04/03 08:56:28;;;;;;;;;;;;;;;;;;4995317;28;19930;-62
2023/04/03 08:58:54;;;;;;;;;;;;;;;;;;5025426;28;19934;-62
2023/04/03 09:01:21;;;;;;;;;;;;;;;;;;4997357;28;19945;-62
2023/04/03 09:03:46;;;;;;;;;;;;;;;;;;4993464;28;20016;-62
2023/04/03 09:06:13;;;;;;;;;;;;;;;;;;4985807;28;20014;-62
2023/04/03 09:08:39;;;;;;;;;;;;;;;;;;4974789;28;20498;-62
2023/04/03 09:11:05;;;;;;;;;;;;;;;;;;4978061;28;20036;-62
2023/04/03 09:13:31;;;;;;;;;;;;;;;;;;4992825;28;20271;-62
2023/04/03 09:15:57;;;;;;;;;;;;;;;;;;5024462;28;19928;-62
2023/04/03 09:18:23;;;;;;;;;;;;;;;;;;4992893;28;19926;-62
2023/04/03 09:20:49;;;;;;;;;;;;;;;;;;4992959;28;19921;-63
2023/04/03 09:23:15;;;;;;;;;;;;;;;;;;4995215;28;19940;-62
2023/04/03 09:25:41;;;;;;;;;;;;;;;;;;4992362;28;19921;-62
2023/04/03 09:28:09;;;;;;;;;;;;;;;;;;4993478;28;20004;-62
2023/04/03 09:30:35;;;;;;;;;;;;;;;;;;4993883;28;19925;-62
2023/04/03 09:33:01;;;;;;;;;;;;;;;;;;4993493;28;19925;-62
2023/04/03 09:35:27;;;;;;;;;;;;;;;;;;4987704;28;20013;-62
2023/04/03 09:37:53;;;;;;;;;;;;;;;;;;4993322;28;20004;-62
2023/04/03 09:40:19;;;;;;;;;;;;;;;;;;4989667;28;20306;-62
2023/04/03 09:42:45;;;;;;;;;;;;;;;;;;4992875;28;20013;-62
2023/04/03 09:45:11;;;;;;;;;;;;;;;;;;4992079;28;19929;-62
2023/04/03 09:47:37;;;;;;;;;;;;;;;;;;4993726;28;19925;-62
2023/04/03 09:50:03;;;;;;;;;;;;;;;;;;4993070;28;19926;-62
2023/04/03 09:52:31;;;;;;;;;;;;;;;;;;4992249;28;19922;-62
2023/04/03 09:54:57;;;;;;;;;;;;;;;;;;5024873;28;19932;-62
2023/04/03 09:57:23;;;;;;;;;;;;;;;;;;4993540;28;19921;-62
2023/04/03 09:59:49;;;;;;;;;;;;;;;;;;5008451;28;19926;-62
2023/04/03 10:02:14;;;;;;;;;;;;;;;;;;4991898;28;19941;-62
2023/04/03 10:04:41;;;;;;;;;;;;;;;;;;4992269;28;20289;-62
2023/04/03 10:07:06;;;;;;;;;;;;;;;;;;4993022;28;20406;-63
2023/04/03 10:09:33;;;;;;;;;;;;;;;;;;4993157;28;19921;-63
2023/04/03 10:11:59;;;;;;;;;;;;;;;;;;4991791;28;19926;-63
2023/04/03 10:14:26;;;;;;;;;;;;;;;;;;4992164;28;19965;-63
2023/04/03 10:16:52;;;;;;;;;;;;;;;;;;4993618;28;19922;-63
2023/04/03 10:19:18;;;;;;;;;;;;;;;;;;4992881;28;19980;-63
2023/04/03 10:21:44;;;;;;;;;;;;;;;;;;4993275;28;19922;-63
2023/04/03 10:24:10;;;;;;;;;;;;;;;;;;4993228;28;19922;-63
2023/04/03 10:26:36;;;;;;;;;;;;;;;;;;4993291;28;20336;-63
2023/04/03 10:29:03;;;;;;;;;;;;;;;;;;4992855;28;19968;-63
2023/04/03 10:31:29;;;;;;;;;;;;;;;;;;4992286;28;19930;-63
2023/04/03 10:33:54;;;;;;;;;;;;;;;;;;4996156;28;20297;-63
2023/04/03 10:36:20;;;;;;;;;;;;;;;;;;5012638;28;20283;-63
2023/04/03 10:38:46;;;;;;;;;;;;;;;;;;4996071;28;19929;-64
2023/04/03 10:41:12;;;;;;;;;;;;;;;;;;4993873;28;20375;-64
2023/04/03 10:43:38;;;;;;;;;;;;;;;;;;4991437;28;20370;-62
2023/04/03 10:46:04;;;;;;;;;;;;;;;;;;4991827;28;20276;-62
2023/04/03 10:48:30;;;;;;;;;;;;;;;;;;4991913;28;19929;-62
2023/04/03 10:50:56;;;;;;;;;;;;;;;;;;4993246;28;20036;-62
2023/04/03 10:53:22;;;;;;;;;;;;;;;;;;4991439;28;20040;-62
2023/04/03 10:55:48;;;;;;;;;;;;;;;;;;5003448;28;20004;-62
2023/04/03 10:58:15;;;;;;;;;;;;;;;;;;4990685;28;21482;-62
2023/04/03 11:00:42;;;;;;;;;;;;;;;;;;4992795;28;20028;-62
2023/04/03 11:03:08;;;;;;;;;;;;;;;;;;4993136;28;20288;-62
2023/04/03 11:05:33;;;;;;;;;;;;;;;;;;4991076;28;19921;-62
2023/04/03 11:07:59;;;;;;;;;;;;;;;;;;4993370;28;19922;-63
2023/04/03 11:10:26;;;;;;;;;;;;;;;;;;4993006;28;19955;-63
2023/04/03 11:12:51;;;;;;;;;;;;;;;;;;4993585;28;19973;-62
2023/04/03 11:15:17;;;;;;;;;;;;;;;;;;4991583;28;20311;-64
2023/04/03 11:17:46;;;;;;;;;;;;;;;;;;4993307;28;19930;-63
2023/04/03 11:20:12;;;;;;;;;;;;;;;;;;4993209;28;19937;-63
2023/04/03 11:22:38;;;;;;;;;;;;;;;;;;4993427;28;20343;-63
2023/04/03 11:25:04;;;;;;;;;;;;;;;;;;4993366;28;19925;-63
2023/04/03 11:27:30;;;;;;;;;;;;;;;;;;4992367;28;20421;-63
2023/04/03 11:29:56;;;;;;;;;;;;;;;;;;5024567;28;19922;-63
2023/04/03 11:32:22;;;;;;;;;;;;;;;;;;4990880;28;19933;-62
2023/04/03 11:34:48;;;;;;;;;;;;;;;;;;4989156;28;19944;-63
2023/04/03 11:37:14;;;;;;;;;;;;;;;;;;4992804;28;19925;-63
2023/04/03 11:39:41;;;;;;;;;;;;;;;;;;5020305;28;19976;-63
2023/04/03 11:42:07;;;;;;;;;;;;;;;;;;4992515;28;19923;-63
2023/04/03 11:44:33;;;;;;;;;;;;;;;;;;4992391;28;19922;-63
2023/04/03 11:46:59;;;;;;;;;;;;;;;;;;4987327;28;19989;-63
2023/04/03 11:49:25;;;;;;;;;;;;;;;;;;4984752;28;20012;-63
2023/04/03 11:51:51;;;;;;;;;;;;;;;;;;4992538;28;20064;-63
2023/04/03 11:54:17;;;;;;;;;;;;;;;;;;4992875;28;19921;-63
2023/04/03 11:56:43;;;;;;;;;;;;;;;;;;4991228;28;19937;-63
2023/04/03 11:59:09;;;;;;;;;;;;;;;;;;4992028;28;19922;-63
2023/04/03 12:01:35;;;;;;;;;;;;;;;;;;4995187;28;20202;-62
2023/04/03 12:04:00;;;;;;;;;;;;;;;;;;4993393;28;19922;-63
2023/04/03 12:06:27;;;;;;;;;;;;;;;;;;4995539;28;19972;-63
2023/04/03 12:08:53;;;;;;;;;;;;;;;;;;4996280;28;19989;-63
2023/04/03 12:11:19;;;;;;;;;;;;;;;;;;4996133;28;19922;-63
2023/04/03 12:13:45;;;;;;;;;;;;;;;;;;4986211;28;19984;-63
2023/04/03 12:16:11;;;;;;;;;;;;;;;;;;4994185;28;19933;-63
2023/04/03 12:18:37;;;;;;;;;;;;;;;;;;5026552;28;20273;-63
2023/04/03 12:21:03;;;;;;;;;;;;;;;;;;4994965;28;19921;-63
2023/04/03 12:23:29;;;;;;;;;;;;;;;;;;4993363;28;19956;-62
2023/04/03 12:25:54;;;;;;;;;;;;;;;;;;4994058;28;19926;-62
2023/04/03 12:28:20;;;;;;;;;;;;;;;;;;4995175;28;19932;-63
2023/04/03 12:30:46;;;;;;;;;;;;;;;;;;4995066;28;19921;-63
2023/04/03 12:33:12;;;;;;;;;;;;;;;;;;4997090;28;19922;-63
2023/04/03 12:35:38;;;;;;;;;;;;;;;;;;4996832;28;19965;-63
2023/04/03 12:38:04;;;;;;;;;;;;;;;;;;4984378;28;20278;-63
2023/04/03 12:40:31;;;;;;;;;;;;;;;;;;4995031;28;19922;-63
2023/04/03 12:42:57;;;;;;;;;;;;;;;;;;4995130;28;19926;-62
2023/04/03 12:45:23;;;;;;;;;;;;;;;;;;4991069;28;19930;-62
2023/04/03 12:47:49;;;;;;;;;;;;;;;;;;4995370;28;19929;-62
2023/04/03 12:50:15;;;;;;;;;;;;;;;;;;4994435;28;19945;-63
2023/04/03 12:52:40;;;;;;;;;;;;;;;;;;4991573;28;20240;-62
2023/04/03 12:55:06;;;;;;;;;;;;;;;;;;4994235;28;20368;-63
2023/04/03 12:57:32;;;;;;;;;;;;;;;;;;5008484;28;19975;-63
2023/04/03 12:59:58;;;;;;;;;;;;;;;;;;4994949;28;19925;-63
2023/04/03 13:02:24;;;;;;;;;;;;;;;;;;4995012;28;19922;-64
2023/04/03 13:04:50;;;;;;;;;;;;;;;;;;4995002;28;19921;-64
2023/04/03 13:07:16;;;;;;;;;;;;;;;;;;4994739;28;19984;-62
2023/04/03 13:09:42;;;;;;;;;;;;;;;;;;4993268;28;19960;-63
2023/04/03 13:12:08;;;;;;;;;;;;;;;;;;4994788;28;20360;-63
2023/04/03 13:14:34;;;;;;;;;;;;;;;;;;4992441;28;19921;-64
2023/04/03 13:17:00;;;;;;;;;;;;;;;;;;4994773;28;19937;-64
2023/04/03 13:19:26;;;;;;;;;;;;;;;;;;4993770;28;19930;-64
2023/04/03 13:21:52;;;;;;;;;;;;;;;;;;4994372;28;19988;-63
2023/04/03 13:24:18;;;;;;;;;;;;;;;;;;4994309;28;19922;-64
2023/04/03 13:26:43;;;;;;;;;;;;;;;;;;4994643;28;20367;-63
2023/04/03 13:29:09;;;;;;;;;;;;;;;;;;4994499;28;19921;-63
2023/04/03 13:31:35;;;;;;;;;;;;;;;;;;4994166;28;20024;-63
2023/04/03 13:34:02;;;;;;;;;;;;;;;;;;4994271;28;19957;-63
2023/04/03 13:36:28;;;;;;;;;;;;;;;;;;4994297;28;19969;-64
2023/04/03 13:38:54;;;;;;;;;;;;;;;;;;4991814;28;20375;-64
2023/04/03 13:41:20;;;;;;;;;;;;;;;;;;4994144;28;19926;-64
2023/04/03 13:43:46;;;;;;;;;;;;;;;;;;4994239;28;19929;-64
2023/04/03 13:46:12;;;;;;;;;;;;;;;;;;4992909;28;19929;-64
2023/04/03 13:48:38;;;;;;;;;;;;;;;;;;4994082;28;20287;-64
2023/04/03 13:51:04;;;;;;;;;;;;;;;;;;4993837;28;19922;-64
2023/04/03 13:53:30;;;;;;;;;;;;;;;;;;4991135;28;20334;-64
2023/04/03 13:55:57;;;;;;;;;;;;;;;;;;4993903;28;19968;-64
2023/04/03 13:58:23;;;;;;;;;;;;;;;;;;5025129;28;20008;-64
2023/04/03 14:00:50;;;;;;;;;;;;;;;;;;4993998;28;20008;-64
2023/04/03 14:03:16;;;;;;;;;;;;;;;;;;4993718;28;20441;-64
2023/04/03 14:05:42;;;;;;;;;;;;;;;;;;5025378;28;19925;-64
2023/04/03 14:08:09;;;;;;;;;;;;;;;;;;4993590;28;19933;-64
2023/04/03 14:10:36;;;;;;;;;;;;;;;;;;4995711;28;19926;-64
2023/04/03 14:13:01;;;;;;;;;;;;;;;;;;4991210;28;19923;-63
2023/04/03 14:15:28;;;;;;;;;;;;;;;;;;4993935;28;19972;-64
2023/04/03 14:17:55;;;;;;;;;;;;;;;;;;4991928;28;20368;-63
2023/04/03 14:20:21;;;;;;;;;;;;;;;;;;4995316;28;19929;-64
2023/04/03 14:22:48;;;;;;;;;;;;;;;;;;4991967;28;19932;-64
2023/04/03 14:25:14;;;;;;;;;;;;;;;;;;4991576;28;19922;-64
2023/04/03 14:27:40;;;;;;;;;;;;;;;;;;5016187;28;19926;-63
2023/04/03 14:30:06;;;;;;;;;;;;;;;;;;4994551;28;19921;-64
2023/04/03 14:32:31;;;;;;;;;;;;;;;;;;4980691;28;19922;-64
2023/04/03 14:34:58;;;;;;;;;;;;;;;;;;4992459;28;19972;-63
2023/04/03 14:37:24;;;;;;;;;;;;;;;;;;4990964;28;19929;-64
2023/04/03 14:39:49;;;;;;;;;;;;;;;;;;4990970;28;20093;-64
2023/04/03 14:42:15;;;;;;;;;;;;;;;;;;4992222;28;19973;-64
2023/04/03 14:44:41;;;;;;;;;;;;;;;;;;4991544;28;19921;-63
2023/04/03 14:47:07;;;;;;;;;;;;;;;;;;4992188;28;20352;-64
2023/04/03 14:49:33;;;;;;;;;;;;;;;;;;4990912;28;20291;-64
2023/04/03 14:51:59;;;;;;;;;;;;;;;;;;4991740;28;19961;-64
2023/04/03 14:54:27;;;;;;;;;;;;;;;;;;4991246;28;19930;-63
2023/04/03 14:56:53;;;;;;;;;;;;;;;;;;4991121;28;20438;-63
2023/04/03 14:59:21;;;;;;;;;;;;;;;;;;4990704;28;19926;-64
2023/04/03 15:01:47;;;;;;;;;;;;;;;;;;4999889;28;19926;-63
2023/04/03 15:04:13;;;;;;;;;;;;;;;;;;5008546;28;19964;-63
2023/04/03 15:06:38;;;;;;;;;;;;;;;;;;5001832;28;20367;-63
2023/04/03 15:09:04;;;;;;;;;;;;;;;;;;4992022;28;19922;-63
2023/04/03 15:11:30;;;;;;;;;;;;;;;;;;4993392;28;19929;-64
2023/04/03 15:13:56;;;;;;;;;;;;;;;;;;4990913;28;20000;-63
2023/04/03 15:16:22;;;;;;;;;;;;;;;;;;4990989;28;19926;-64
2023/04/03 15:18:48;;;;;;;;;;;;;;;;;;4977606;28;19981;-64
2023/04/03 15:21:14;;;;;;;;;;;;;;;;;;4984480;28;19926;-64
2023/04/03 15:23:40;;;;;;;;;;;;;;;;;;5024077;28;20272;-64
2023/04/03 15:26:06;;;;;;;;;;;;;;;;;;4991486;28;19922;-63
2023/04/03 15:28:32;;;;;;;;;;;;;;;;;;4992388;28;19921;-63
2023/04/03 15:30:57;;;;;;;;;;;;;;;;;;4991302;28;19926;-64
2023/04/03 15:33:23;;;;;;;;;;;;;;;;;;4994854;28;19972;-64
2023/04/03 15:35:50;;;;;;;;;;;;;;;;;;4996941;28;19980;-64
2023/04/03 15:38:16;;;;;;;;;;;;;;;;;;4998014;28;19981;-64
2023/04/03 15:40:42;;;;;;;;;;;;;;;;;;5008370;28;19926;-64
2023/04/03 15:43:08;;;;;;;;;;;;;;;;;;4995595;28;19975;-64
2023/04/03 15:45:34;;;;;;;;;;;;;;;;;;5000420;28;19961;-64
2023/04/03 15:48:00;;;;;;;;;;;;;;;;;;4995440;28;20013;-64
2023/04/03 15:50:26;;;;;;;;;;;;;;;;;;4996133;28;19948;-64
2023/04/03 15:52:54;;;;;;;;;;;;;;;;;;4996513;28;20332;-64
2023/04/03 15:55:20;;;;;;;;;;;;;;;;;;4996145;28;19948;-64
2023/04/03 15:57:45;;;;;;;;;;;;;;;;;;4996772;28;19933;-62
2023/04/03 16:00:11;;;;;;;;;;;;;;;;;;4994902;28;19941;-62
2023/04/03 16:02:37;;;;;;;;;;;;;;;;;;4997432;28;19948;-62
2023/04/03 16:05:03;;;;;;;;;;;;;;;;;;4994245;28;19922;-63
2023/04/03 16:07:29;;;;;;;;;;;;;;;;;;4997863;28;19922;-63
2023/04/03 16:09:55;;;;;;;;;;;;;;;;;;5025967;28;20467;-63
2023/04/03 16:12:21;;;;;;;;;;;;;;;;;;4993737;28;20008;-63
2023/04/03 16:14:47;;;;;;;;;;;;;;;;;;4998960;28;20012;-63
2023/04/03 16:17:13;;;;;;;;;;;;;;;;;;5005043;28;19980;-63
2023/04/03 16:19:39;;;;;;;;;;;;;;;;;;4992316;28;19976;-63
2023/04/03 16:22:05;;;;;;;;;;;;;;;;;;4975461;28;19930;-63
2023/04/03 16:24:31;;;;;;;;;;;;;;;;;;4996712;28;19921;-63
2023/04/03 16:26:58;;;;;;;;;;;;;;;;;;4995223;28;20294;-63
2023/04/03 16:29:24;;;;;;;;;;;;;;;;;;5025962;28;19928;-63
2023/04/03 16:31:50;;;;;;;;;;;;;;;;;;5027988;28;19929;-63
2023/04/03 16:34:15;;;;;;;;;;;;;;;;;;4985731;28;19998;-63
2023/04/03 16:36:41;;;;;;;;;;;;;;;;;;5000272;28;19930;-63